Terminal Aerodrome Forecast
Issued by NWS Sioux Falls, SD

Home | Current Version | Previous Version | Text Only | Print | Product List | Glossary On
Versions: 1 2 3 4 5 6 7 8 9 10 11 12 13 14 15 16 17 18 19 20 21 22 23 24
000
FTUS43 KFSD 010520
TAFFSD
TAF
KFSD 010520Z 0106/0206 16014G22KT P6SM BKN008
     FM010900 15006KT 6SM BR OVC008
      TEMPO 0109/0113 -DZ
     FM011700 27007KT P6SM SCT012 BKN090
     FM012000 24006KT P6SM SCT040 BKN100
     FM020200 VRB03KT P6SM SCT050 BKN100=

USA.gov is the U.S. government's official web portal to all federal, state and local government web resources and services.